Aeroporto :
LOGIN :

Iscrizione | Disclaimer

   EN    FR    IT 

 










Sommario :    VFR   VFR Marginale   IFR   IFR Intensivo   IFR Molto Intensivo
Visibilità : 
Base nubi : 
>= 8 km
>= 3000ft
5 / 8 km
1000 / 3000 ft
1500m / 5 km
500 / 1000 ft
800 / 1500m
200 / 500 ft
< 800m
< 200 ft
Simboli :   Temporali  Nebbia  Neve Forte  Precipitazioni Forti  Vento > 20 kt
SIGMETs :   Varie  Temporali  Ghiacco  Turbolenza  Onda orograficha  Ceneri Vulcaniche







- Altitudine del aeroporto : 1000 ft
- Codice IATA : PEV


LHPP - Pécs Pogany

ULTIMO METAR :
  • 271115Z 26007KT CAVOK 31/21 Q1019

METARs OBSOLETI :
  • 271045Z 27008KT CAVOK 30/21 Q1019
  • 271015Z 28008KT CAVOK 30/21 Q1019
  • 270945Z 28009KT CAVOK 30/20 Q1020
  • 270915Z 27008KT CAVOK 29/21 Q1020
  • 270845Z 29008KT CAVOK 29/21 Q1020

TAF TAF LHPP
Valido dal 27 a 12 ore il 27 a 21 ore UTC


271115Z 2712/2721 27008KT CAVOK
PROB30
TEMPO 2714/2721 VRB15G36KT 4000 SHRA TSRA SCT050CB
BECMG 2716/2719 34009KT
Nessun NOTAM noto per questo aeroporto.
1 SIGMET conosciuto per la FIR Budapest (LHCC) :
 
Linea di groppi
LHCC SIGMET 01 VALID 271130/271240 LHBP
LHCC BUDAPEST FIR SQL TS OBS NE OF LINE N4813 E02224 - N4809 E02121 - N4833 E02041 TOP FL420 MOV SE INTSF=



MetMap, La meteo Aeronautica in un colpo d'occhio ! - Copyright ORBIFLY Dicembre 2007 - Disclaimer

ORBIFLY MET'MAP TEAM :

Programmazione e sviluppo : Alexandra Zaïnal
Concezione e sviluppo : Baudouin d'Aumeries
Co-Programmazione e sviluppo : Marc-Olivier Méhu
Supporto tecnico e logistico : Manuel Goepfert
Aiuto per la traduzione : Arnaldo La Scala

Contatto : metmap@orbifly.com




FONTI E CREDITI :

   NOAA